Time;durP1;ratioP1;P1;durP2;ratioP2;P2;SDS_P1;SDS_P2;PMS_P1;PMS_P2;Temp;Humidity;BMP_temperature;BMP_pressure;BME280_temperature;BME280_humidity;BME280_pressure;Samples;Min_cycle;Max_cycle;Signal;HPM_P1;HPM_P2
2022/02/07 00:00:22;;;;;;;14.32;3.30;;;6.40;72.00;;;;;;4957985;28;20085;-73
2022/02/07 00:05:26;;;;;;;15.55;4.50;;;6.40;72.30;;;;;;4921454;28;20035;-70
2022/02/07 00:07:52;;;;;;;19.05;3.70;;;6.30;72.20;;;;;;4922628;28;20047;-73
2022/02/07 00:10:18;;;;;;;19.23;3.30;;;6.30;72.00;;;;;;4922450;28;20043;-71
2022/02/07 00:12:46;;;;;;;15.82;3.47;;;6.30;71.90;;;;;;4922976;28;21222;-73
2022/02/07 00:15:13;;;;;;;15.55;3.83;;;6.20;72.20;;;;;;4920908;28;20558;-71
2022/02/07 00:17:39;;;;;;;15.77;3.30;;;6.20;72.20;;;;;;4923869;28;20040;-74
2022/02/07 00:20:10;;;;;;;15.02;3.20;;;6.20;72.30;;;;;;4919837;28;20547;-72
2022/02/07 00:22:36;;;;;;;14.90;3.92;;;6.20;72.10;;;;;;4922174;28;20039;-72
2022/02/07 00:25:02;;;;;;;19.40;4.18;;;6.20;72.40;;;;;;4922471;28;20032;-71
2022/02/07 00:27:28;;;;;;;13.77;3.08;;;6.20;72.70;;;;;;4922597;28;20043;-72
2022/02/07 00:29:53;;;;;;;15.57;3.67;;;6.20;72.80;;;;;;4916564;28;20150;-71
2022/02/07 00:32:19;;;;;;;17.67;4.03;;;6.10;73.40;;;;;;4936779;28;20597;-70
2022/02/07 00:34:45;;;;;;;22.88;3.67;;;6.20;73.20;;;;;;4922134;28;20040;-70
2022/02/07 00:37:10;;;;;;;16.48;3.70;;;6.20;73.20;;;;;;4935471;28;20040;-70
2022/02/07 00:39:46;;;;;;;16.20;3.65;;;6.20;73.40;;;;;;4920225;28;20046;-72
2022/02/07 00:42:22;;;;;;;16.42;3.42;;;6.10;73.90;;;;;;4930681;28;20412;-70
2022/02/07 00:44:49;;;;;;;24.27;5.55;;;6.10;74.40;;;;;;4930960;28;20032;-71
2022/02/07 00:47:15;;;;;;;18.95;4.18;;;6.10;74.10;;;;;;4922927;28;20751;-70
2022/02/07 00:49:42;;;;;;;13.48;4.22;;;6.10;73.80;;;;;;4921749;28;20035;-71
2022/02/07 00:52:08;;;;;;;15.65;3.10;;;6.10;73.20;;;;;;4921061;28;20112;-73
2022/02/07 00:54:34;;;;;;;12.57;2.97;;;6.10;72.60;;;;;;4922296;28;20130;-72
2022/02/07 00:57:00;;;;;;;12.18;2.88;;;6.10;72.30;;;;;;4922882;28;20043;-71
2022/02/07 00:59:25;;;;;;;14.43;3.78;;;6.20;71.70;;;;;;4920463;28;20060;-72
2022/02/07 01:01:51;;;;;;;15.00;3.10;;;6.10;72.20;;;;;;4923425;28;20131;-70
2022/02/07 01:04:17;;;;;;;12.75;4.13;;;6.10;71.90;;;;;;4916877;28;20090;-71
2022/02/07 01:06:42;;;;;;;15.93;3.55;;;6.10;71.30;;;;;;4922346;28;20484;-72
2022/02/07 01:09:21;;;;;;;15.38;2.75;;;6.10;71.60;;;;;;4919868;28;20382;-70
2022/02/07 01:12:08;;;;;;;11.18;3.13;;;6.00;71.60;;;;;;4921944;28;20043;-72
2022/02/07 01:46:50;;;;;;;18.67;3.30;;;5.70;73.80;;;;;;4921023;28;20430;-73
2022/02/07 01:49:27;;;;;;;14.10;4.05;;;5.60;74.00;;;;;;4919771;28;20296;-70
2022/02/07 01:54:44;;;;;;;15.95;3.00;;;5.60;74.00;;;;;;4917995;28;20051;-74
2022/02/07 01:57:12;;;;;;;11.88;3.05;;;5.60;73.50;;;;;;4915300;28;20592;-71
2022/02/07 01:59:39;;;;;;;18.67;3.80;;;5.60;73.50;;;;;;4915769;28;20281;-72
2022/02/07 02:02:06;;;;;;;13.23;3.33;;;5.60;73.60;;;;;;4920579;28;20086;-71
2022/02/07 02:04:32;;;;;;;14.27;2.90;;;5.50;73.70;;;;;;4918528;28;20043;-72
2022/02/07 02:06:58;;;;;;;17.45;4.20;;;5.50;74.00;;;;;;4918020;28;20047;-72
2022/02/07 02:09:28;;;;;;;14.68;3.47;;;5.40;74.10;;;;;;4918784;28;20055;-72
2022/02/07 02:11:53;;;;;;;17.88;3.40;;;5.30;74.20;;;;;;4918960;28;20047;-72
2022/02/07 02:14:39;;;;;;;18.80;3.28;;;5.30;74.00;;;;;;4920859;28;20031;-71
2022/02/07 02:22:52;;;;;;;15.15;3.38;;;5.20;74.10;;;;;;4920942;28;20044;-72
2022/02/07 02:47:19;;;;;;;18.08;3.90;;;4.80;76.10;;;;;;4922994;28;20078;-72
2022/02/07 02:49:49;;;;;;;12.98;2.90;;;4.90;75.80;;;;;;4934604;28;20410;-71
2022/02/07 02:52:15;;;;;;;13.43;3.15;;;4.80;76.10;;;;;;4918914;28;20476;-72
2022/02/07 02:54:41;;;;;;;12.88;2.80;;;4.80;76.30;;;;;;4920328;28;20075;-72
2022/02/07 02:57:06;;;;;;;16.40;3.50;;;4.80;76.20;;;;;;4933283;28;20035;-71
2022/02/07 02:59:32;;;;;;;15.88;3.00;;;4.70;76.30;;;;;;4921872;28;20039;-72
2022/02/07 03:01:58;;;;;;;15.90;3.45;;;4.70;76.20;;;;;;4921728;28;20032;-72
2022/02/07 03:04:23;;;;;;;17.10;3.15;;;4.70;76.50;;;;;;4914442;28;20043;-71
2022/02/07 03:06:50;;;;;;;12.98;3.08;;;4.70;76.40;;;;;;4920616;28;20043;-71
2022/02/07 03:09:16;;;;;;;16.00;3.55;;;4.70;76.60;;;;;;4918870;28;20159;-70
2022/02/07 03:11:42;;;;;;;15.63;3.30;;;4.60;76.70;;;;;;4921192;28;20547;-72
2022/02/07 03:14:18;;;;;;;17.25;3.28;;;4.60;76.80;;;;;;4917828;28;20040;-73
2022/02/07 03:16:43;;;;;;;13.35;3.22;;;4.60;77.00;;;;;;4921914;28;20042;-72
2022/02/07 03:19:11;;;;;;;20.42;3.17;;;4.70;77.00;;;;;;4919564;28;20484;-72
2022/02/07 03:21:38;;;;;;;14.75;3.33;;;4.70;76.60;;;;;;4937106;28;20028;-74
2022/02/07 03:24:05;;;;;;;16.95;3.38;;;4.70;76.70;;;;;;4919112;28;20036;-73
2022/02/07 03:26:36;;;;;;;13.32;2.92;;;4.70;76.70;;;;;;4914294;28;20077;-71
2022/02/07 03:29:02;;;;;;;13.65;3.28;;;4.70;76.50;;;;;;4920944;28;20135;-73
2022/02/07 03:31:28;;;;;;;19.27;3.28;;;4.70;76.50;;;;;;4921255;28;20066;-73
2022/02/07 03:33:54;;;;;;;13.05;3.50;;;4.70;76.40;;;;;;4918052;28;20117;-73
2022/02/07 03:36:19;;;;;;;12.38;3.60;;;4.70;76.30;;;;;;4919213;28;20819;-72
2022/02/07 03:38:46;;;;;;;15.20;3.20;;;4.60;76.30;;;;;;4923961;28;20036;-72
2022/02/07 03:41:12;;;;;;;21.02;2.63;;;4.60;76.40;;;;;;4923372;28;20035;-74
2022/02/07 03:43:38;;;;;;;11.93;3.83;;;4.60;76.30;;;;;;4926460;28;20040;-73
2022/02/07 03:46:04;;;;;;;12.63;2.58;;;4.60;76.10;;;;;;4921752;28;20050;-71
2022/02/07 03:48:31;;;;;;;14.43;2.83;;;4.60;76.10;;;;;;4923230;28;20114;-73
2022/02/07 03:50:57;;;;;;;12.07;3.30;;;4.50;75.90;;;;;;4954716;28;20191;-74
2022/02/07 03:53:23;;;;;;;15.80;2.80;;;4.60;75.60;;;;;;4923644;28;20301;-71
2022/02/07 03:55:49;;;;;;;13.75;2.85;;;4.60;75.60;;;;;;4923634;28;20035;-74
2022/02/07 03:58:20;;;;;;;17.75;4.47;;;4.60;75.40;;;;;;4921056;28;20281;-72
2022/02/07 04:00:50;;;;;;;10.73;3.33;;;4.50;75.60;;;;;;4922904;28;20409;-71
2022/02/07 04:03:19;;;;;;;12.05;2.75;;;4.50;75.50;;;;;;4922133;28;20027;-72
2022/02/07 04:05:49;;;;;;;11.43;2.80;;;4.50;75.30;;;;;;4922316;28;20042;-71
2022/02/07 04:08:16;;;;;;;15.90;2.90;;;4.40;75.60;;;;;;4922930;28;20035;-73
2022/02/07 04:13:32;;;;;;;10.00;2.45;;;4.30;76.10;;;;;;4923069;28;20047;-70
2022/02/07 04:16:01;;;;;;;15.27;2.75;;;4.30;76.00;;;;;;4927495;28;20613;-72
2022/02/07 04:18:31;;;;;;;15.43;3.08;;;4.40;75.80;;;;;;4925654;28;20039;-71
2022/02/07 04:20:57;;;;;;;14.60;2.92;;;4.30;76.00;;;;;;4924097;28;20051;-71
2022/02/07 04:23:23;;;;;;;15.18;2.83;;;4.20;76.40;;;;;;4922430;28;20150;-71
2022/02/07 04:25:49;;;;;;;13.13;2.70;;;4.10;76.60;;;;;;4929615;28;20055;-70
2022/02/07 04:28:14;;;;;;;14.75;3.20;;;4.20;76.70;;;;;;4922404;28;20131;-71
2022/02/07 04:30:40;;;;;;;12.20;3.30;;;4.20;76.70;;;;;;4920101;28;20059;-74
2022/02/07 04:33:06;;;;;;;11.48;3.05;;;4.10;76.90;;;;;;4914689;28;20400;-70
2022/02/07 04:35:32;;;;;;;10.90;2.55;;;4.00;77.10;;;;;;4950570;28;20392;-71
2022/02/07 04:37:57;;;;;;;10.63;2.53;;;3.90;77.40;;;;;;4923609;28;20476;-70
2022/02/07 04:40:23;;;;;;;16.55;3.30;;;3.90;77.60;;;;;;4920825;28;20331;-72
2022/02/07 04:42:49;;;;;;;14.52;2.85;;;3.90;77.80;;;;;;4921997;28;20411;-75
2022/02/07 04:48:21;;;;;;;14.75;2.85;;;3.80;78.00;;;;;;4920996;28;20052;-71
2022/02/07 04:51:45;;;;;;;14.90;3.13;;;3.80;78.10;;;;;;4922308;28;20123;-71
2022/02/07 05:01:31;;;;;;;13.13;2.92;;;3.60;78.70;;;;;;4926602;28;20028;-72
2022/02/07 05:03:59;;;;;;;9.25;2.63;;;3.60;78.70;;;;;;4920389;28;20558;-74
2022/02/07 05:14:40;;;;;;;10.18;2.47;;;3.50;79.20;;;;;;4922524;28;20046;-71
2022/02/07 05:17:08;;;;;;;9.27;2.30;;;3.40;79.20;;;;;;4921499;28;20130;-74
2022/02/07 05:19:34;;;;;;;11.70;2.72;;;3.40;79.20;;;;;;4914798;28;20091;-74
2022/02/07 05:22:00;;;;;;;11.85;3.42;;;3.40;79.30;;;;;;4921856;28;20047;-72
2022/02/07 05:24:25;;;;;;;15.15;3.28;;;3.30;79.40;;;;;;4921694;28;20319;-72
2022/02/07 05:26:51;;;;;;;10.80;2.42;;;3.30;79.50;;;;;;4919592;28;20055;-73
2022/02/07 05:29:17;;;;;;;12.85;2.95;;;3.20;79.90;;;;;;4916979;28;20205;-72
2022/02/07 05:31:42;;;;;;;14.15;2.90;;;3.20;80.00;;;;;;4932004;28;20448;-72
2022/02/07 05:34:09;;;;;;;8.82;3.20;;;3.10;80.20;;;;;;4915382;28;20812;-72
2022/02/07 05:36:41;;;;;;;8.95;3.38;;;3.10;80.30;;;;;;4943238;28;20051;-71
2022/02/07 05:39:07;;;;;;;10.60;3.25;;;3.10;80.50;;;;;;4913231;28;20039;-72
2022/02/07 05:41:33;;;;;;;10.00;2.97;;;3.00;80.80;;;;;;4912951;28;20043;-73
2022/02/07 05:43:59;;;;;;;12.88;3.00;;;3.00;80.90;;;;;;4917320;28;20039;-73
2022/02/07 05:46:25;;;;;;;11.75;3.67;;;3.00;81.00;;;;;;4931133;28;20055;-73
2022/02/07 05:48:51;;;;;;;14.13;3.75;;;3.00;81.00;;;;;;4917942;28;20036;-72
2022/02/07 05:51:16;;;;;;;11.32;2.78;;;2.90;81.20;;;;;;4921884;28;20035;-76
2022/02/07 05:53:42;;;;;;;10.23;2.88;;;2.90;81.40;;;;;;4915562;28;20673;-72
2022/02/07 05:56:08;;;;;;;13.30;3.13;;;2.90;81.50;;;;;;4931482;28;21812;-76
2022/02/07 05:58:33;;;;;;;10.77;2.65;;;2.90;81.60;;;;;;4915323;28;20790;-75
2022/02/07 06:00:59;;;;;;;11.27;3.25;;;2.90;81.50;;;;;;4918700;28;20071;-73
2022/02/07 06:03:25;;;;;;;8.30;2.65;;;2.90;81.50;;;;;;4920065;28;20066;-75
2022/02/07 06:05:51;;;;;;;12.98;3.20;;;2.90;81.50;;;;;;4913421;28;20124;-72
2022/02/07 06:08:17;;;;;;;14.93;3.13;;;2.90;81.60;;;;;;4948051;28;20119;-73
2022/02/07 06:10:44;;;;;;;13.30;3.58;;;2.80;81.60;;;;;;4913299;29;20043;-71
2022/02/07 06:13:17;;;;;;;9.50;2.80;;;2.80;81.60;;;;;;4915796;28;20031;-71
2022/02/07 06:15:43;;;;;;;9.75;3.28;;;2.80;81.60;;;;;;4918614;28;20802;-74
2022/02/07 06:18:11;;;;;;;9.88;3.08;;;2.70;81.60;;;;;;4911845;28;20074;-73
2022/02/07 06:20:38;;;;;;;12.40;3.22;;;2.60;81.90;;;;;;4918178;28;20607;-74
2022/02/07 06:23:03;;;;;;;16.55;3.60;;;2.60;82.00;;;;;;4915550;28;20091;-73
2022/02/07 06:25:29;;;;;;;8.98;3.03;;;2.60;82.10;;;;;;4918639;28;20412;-73
2022/02/07 06:27:55;;;;;;;15.10;3.55;;;2.60;82.30;;;;;;4915162;28;20117;-75
2022/02/07 06:30:21;;;;;;;10.25;3.83;;;2.50;82.50;;;;;;4918580;28;22183;-75
2022/02/07 06:32:47;;;;;;;12.93;3.47;;;2.40;82.60;;;;;;4919301;28;20031;-74
2022/02/07 06:35:13;;;;;;;12.98;3.95;;;2.40;82.80;;;;;;4919732;28;20035;-76
2022/02/07 06:37:40;;;;;;;12.95;3.53;;;2.40;83.00;;;;;;4921475;28;20056;-74
2022/02/07 06:40:08;;;;;;;12.90;3.92;;;2.40;83.20;;;;;;4920370;28;20031;-73
2022/02/07 06:42:35;;;;;;;11.07;3.20;;;2.40;83.30;;;;;;4927080;28;20047;-75
2022/02/07 06:45:02;;;;;;;11.85;3.30;;;2.30;83.30;;;;;;4920998;28;20074;-75
2022/02/07 06:47:28;;;;;;;9.95;3.47;;;2.30;83.40;;;;;;4924596;28;20047;-76
2022/02/07 06:49:54;;;;;;;10.68;4.22;;;2.30;83.40;;;;;;4923173;28;20035;-76
2022/02/07 06:52:19;;;;;;;13.82;4.55;;;2.20;83.60;;;;;;4923068;28;20047;-75
2022/02/07 06:54:45;;;;;;;12.32;3.65;;;2.20;83.70;;;;;;4920207;28;20517;-73
2022/02/07 06:57:12;;;;;;;13.07;3.97;;;2.20;83.80;;;;;;4916171;28;20871;-73
2022/02/07 06:59:41;;;;;;;15.05;4.53;;;2.20;83.90;;;;;;4935043;28;20546;-74
2022/02/07 07:02:08;;;;;;;15.05;4.13;;;2.20;84.00;;;;;;4919683;28;20039;-75
2022/02/07 07:04:34;;;;;;;14.82;3.70;;;2.20;84.00;;;;;;4920546;28;20073;-73
2022/02/07 07:07:00;;;;;;;8.48;3.47;;;2.20;84.10;;;;;;4918543;28;20878;-74
2022/02/07 07:09:26;;;;;;;13.43;3.80;;;2.20;84.10;;;;;;4920072;28;20495;-68
2022/02/07 07:11:56;;;;;;;13.40;3.85;;;2.20;84.30;;;;;;4921513;28;20071;-68
2022/02/07 07:14:41;;;;;;;14.13;4.40;;;2.30;84.40;;;;;;4928962;28;20032;-70
2022/02/07 07:17:07;;;;;;;15.60;4.57;;;2.30;84.40;;;;;;4926002;28;20059;-70
2022/02/07 07:19:33;;;;;;;16.20;4.30;;;2.30;84.30;;;;;;4928126;28;20104;-68
2022/02/07 07:21:59;;;;;;;14.32;4.88;;;2.30;84.30;;;;;;4923537;28;20151;-68
2022/02/07 07:24:26;;;;;;;15.40;5.32;;;2.30;84.10;;;;;;4923627;28;20518;-69
2022/02/07 07:26:51;;;;;;;22.83;5.47;;;2.40;84.10;;;;;;4928205;28;20054;-68
2022/02/07 07:29:22;;;;;;;12.63;4.22;;;2.40;84.00;;;;;;4922968;28;20048;-68
2022/02/07 07:31:56;;;;;;;18.85;4.65;;;2.40;84.00;;;;;;4928363;28;20767;-68
2022/02/07 07:34:22;;;;;;;12.50;4.82;;;2.40;83.90;;;;;;4937364;28;20039;-67
2022/02/07 07:36:48;;;;;;;17.65;5.70;;;2.40;84.00;;;;;;4924576;28;20044;-68
2022/02/07 07:39:15;;;;;;;16.33;5.30;;;2.40;84.10;;;;;;4922952;28;20044;-68
2022/02/07 07:41:43;;;;;;;18.27;5.35;;;2.50;84.20;;;;;;4938044;28;20059;-69
2022/02/07 07:44:09;;;;;;;20.85;6.13;;;2.50;84.10;;;;;;4922169;28;20524;-69
2022/02/07 07:46:36;;;;;;;14.48;4.95;;;2.60;84.00;;;;;;4924686;28;20059;-68
2022/02/07 07:49:08;;;;;;;19.88;5.25;;;2.60;83.90;;;;;;4954426;28;20052;-69
2022/02/07 08:02:18;;;;;;;19.13;5.88;;;2.70;83.80;;;;;;4923193;28;20043;-68
2022/02/07 08:04:46;;;;;;;13.60;4.88;;;2.80;83.90;;;;;;4923205;28;20048;-69
2022/02/07 08:12:05;;;;;;;17.92;5.80;;;3.00;83.60;;;;;;4922465;28;20039;-69
2022/02/07 08:14:35;;;;;;;18.17;6.57;;;3.00;83.60;;;;;;4922739;28;20090;-69
2022/02/07 08:17:05;;;;;;;13.70;6.57;;;3.10;83.60;;;;;;4929284;28;20764;-70
2022/02/07 08:19:33;;;;;;;20.00;6.03;;;3.10;83.30;;;;;;4922430;28;20048;-69
2022/02/07 08:21:59;;;;;;;25.05;6.85;;;3.20;83.20;;;;;;4923597;28;20887;-69
2022/02/07 08:24:25;;;;;;;16.63;6.00;;;3.30;82.90;;;;;;4922245;28;20039;-69
2022/02/07 08:26:53;;;;;;;18.60;6.05;;;3.30;82.90;;;;;;4931109;28;20051;-68
2022/02/07 08:29:20;;;;;;;21.13;5.95;;;3.40;83.00;;;;;;4926644;28;20064;-73
2022/02/07 08:31:46;;;;;;;15.95;6.07;;;3.50;82.90;;;;;;4929872;28;20040;-69
2022/02/07 08:34:12;;;;;;;13.05;5.22;;;3.50;82.90;;;;;;4927381;28;20051;-70
2022/02/07 08:36:38;;;;;;;20.02;6.28;;;3.60;82.80;;;;;;4925895;28;20032;-70
2022/02/07 08:39:04;;;;;;;20.17;7.00;;;3.70;82.80;;;;;;4935827;28;20043;-69
2022/02/07 08:41:30;;;;;;;20.52;7.28;;;3.70;82.80;;;;;;4923245;28;20559;-69
2022/02/07 08:43:56;;;;;;;19.25;7.38;;;3.70;82.50;;;;;;4923973;28;20054;-70
2022/02/07 08:46:23;;;;;;;21.90;6.78;;;3.80;82.50;;;;;;4922485;28;20043;-69
2022/02/07 08:48:49;;;;;;;23.77;8.45;;;3.80;82.70;;;;;;4924927;28;20044;-69
2022/02/07 08:51:17;;;;;;;17.88;7.93;;;3.90;82.60;;;;;;4921915;28;20092;-69
2022/02/07 08:53:46;;;;;;;18.92;7.53;;;3.90;82.50;;;;;;4921550;28;20123;-69
2022/02/07 08:56:13;;;;;;;18.30;6.70;;;4.00;82.40;;;;;;4916803;28;20046;-70
2022/02/07 08:58:44;;;;;;;19.08;6.22;;;4.20;82.10;;;;;;4914722;28;20047;-71
2022/02/07 09:01:25;;;;;;;19.05;6.20;;;4.50;81.30;;;;;;4917137;28;20036;-71
2022/02/07 09:11:16;;;;;;;20.60;6.22;;;5.30;78.80;;;;;;4922149;28;20114;-72
2022/02/07 09:13:45;;;;;;;15.30;6.10;;;5.50;78.20;;;;;;4922828;28;20087;-71
2022/02/07 09:18:41;;;;;;;18.23;4.57;;;5.50;77.70;;;;;;4919716;28;20497;-70
2022/02/07 09:21:08;;;;;;;18.25;5.03;;;5.40;77.40;;;;;;4922094;28;20028;-72
2022/02/07 09:23:36;;;;;;;18.77;4.30;;;5.50;77.50;;;;;;4937630;28;20388;-72
2022/02/07 09:26:03;;;;;;;18.00;5.75;;;5.60;76.90;;;;;;4937440;28;20390;-70
2022/02/07 09:28:29;;;;;;;19.10;5.60;;;5.70;76.70;;;;;;4918575;28;20048;-69
2022/02/07 09:30:54;;;;;;;16.33;5.55;;;5.80;76.90;;;;;;4921481;28;20036;-69
2022/02/07 09:33:21;;;;;;;16.17;4.40;;;5.80;76.90;;;;;;4921187;28;20086;-70
2022/02/07 09:35:49;;;;;;;12.40;4.18;;;5.90;76.60;;;;;;4921641;28;20054;-70
2022/02/07 09:38:17;;;;;;;15.77;4.03;;;6.10;76.60;;;;;;4920826;28;20445;-69
2022/02/07 09:40:48;;;;;;;13.57;3.80;;;6.20;76.20;;;;;;4925031;28;20125;-71
2022/02/07 09:43:14;;;;;;;15.23;4.03;;;6.20;76.00;;;;;;4951568;28;20592;-70
2022/02/07 09:45:44;;;;;;;16.92;4.13;;;6.10;75.40;;;;;;4933481;28;20038;-71
2022/02/07 09:48:10;;;;;;;15.13;4.30;;;6.20;76.70;;;;;;4925717;28;20091;-70
2022/02/07 09:50:38;;;;;;;14.93;4.25;;;6.40;76.10;;;;;;4937019;28;20043;-70
2022/02/07 09:53:04;;;;;;;15.25;4.45;;;6.60;75.40;;;;;;4920574;28;20042;-69
2022/02/07 09:55:31;;;;;;;16.55;3.35;;;6.70;74.80;;;;;;4921633;28;20169;-70
2022/02/07 09:57:57;;;;;;;18.20;4.20;;;6.60;74.80;;;;;;4922202;28;20130;-71
2022/02/07 10:00:32;;;;;;;16.98;4.80;;;6.80;75.10;;;;;;4923517;28;20117;-74
2022/02/07 10:11:08;;;;;;;15.00;3.55;;;7.10;73.40;;;;;;4922190;28;20467;-73
2022/02/07 10:14:03;;;;;;;13.68;3.53;;;7.10;73.80;;;;;;4913677;28;20378;-75
2022/02/07 10:38:55;;;;;;;12.90;2.95;;;7.50;72.40;;;;;;4923533;28;20511;-71
2022/02/07 10:42:12;;;;;;;17.30;3.65;;;7.50;72.00;;;;;;4919668;28;20668;-73
2022/02/07 10:44:50;;;;;;;13.98;3.47;;;7.50;72.80;;;;;;4918057;28;20606;-69
2022/02/07 10:47:30;;;;;;;17.77;3.40;;;7.60;73.30;;;;;;4924460;28;20110;-69
2022/02/07 10:50:07;;;;;;;10.45;2.95;;;7.60;72.60;;;;;;4920414;28;20070;-71
2022/02/07 10:52:51;;;;;;;16.75;3.25;;;7.60;72.70;;;;;;4916915;28;20050;-70
2022/02/07 10:55:35;;;;;;;14.93;3.58;;;7.70;72.50;;;;;;4921279;28;20035;-71
2022/02/07 10:58:06;;;;;;;12.77;3.08;;;7.60;72.80;;;;;;4917496;28;20040;-73
2022/02/07 11:00:41;;;;;;;12.98;3.00;;;7.60;72.60;;;;;;4920332;28;20139;-68
2022/02/07 11:06:08;;;;;;;15.40;3.15;;;7.90;72.40;;;;;;4920335;28;20036;-68
2022/02/07 11:08:35;;;;;;;16.88;3.42;;;7.90;70.20;;;;;;4926991;28;20773;-71
2022/02/07 11:11:32;;;;;;;10.07;2.95;;;7.80;69.90;;;;;;4935196;28;20519;-69
2022/02/07 11:20:00;;;;;;;12.45;2.30;;;7.90;70.00;;;;;;4947020;28;20036;-70
2022/02/07 11:25:43;;;;;;;14.88;3.30;;;7.90;68.70;;;;;;4929387;28;20305;-68
2022/02/07 11:28:29;;;;;;;10.80;3.33;;;8.10;69.60;;;;;;4931191;28;20471;-69
2022/02/07 11:30:57;;;;;;;13.15;3.05;;;8.10;69.00;;;;;;4920632;28;20040;-71
2022/02/07 11:33:33;;;;;;;14.82;3.65;;;8.30;68.70;;;;;;4923162;28;20477;-71
2022/02/07 11:35:59;;;;;;;9.85;2.50;;;8.30;67.80;;;;;;4921067;28;20066;-73
2022/02/07 11:38:25;;;;;;;10.65;2.63;;;8.50;67.00;;;;;;4930970;28;20269;-71
2022/02/07 11:41:03;;;;;;;12.52;3.50;;;8.40;66.50;;;;;;4923866;28;20750;-69
2022/02/07 11:43:34;;;;;;;14.82;4.15;;;8.30;67.00;;;;;;4940313;28;20123;-69
2022/02/07 11:46:06;;;;;;;13.75;3.50;;;8.40;67.80;;;;;;4918238;28;20125;-73
2022/02/07 11:48:43;;;;;;;9.77;2.33;;;8.40;67.80;;;;;;4926318;28;20053;-70
2022/02/07 11:51:16;;;;;;;8.25;3.13;;;8.40;66.10;;;;;;4919163;28;20046;-72
2022/02/07 11:53:50;;;;;;;10.73;2.72;;;8.60;66.40;;;;;;4918805;28;20063;-72
2022/02/07 11:56:43;;;;;;;10.88;2.40;;;8.60;65.50;;;;;;4920586;28;20443;-70
2022/02/07 11:59:22;;;;;;;9.82;2.38;;;8.70;66.10;;;;;;4924072;28;20040;-73
2022/02/07 12:02:06;;;;;;;11.25;3.20;;;8.80;66.20;;;;;;4924924;28;20043;-70
2022/02/07 12:04:41;;;;;;;10.82;2.90;;;9.00;65.00;;;;;;4897937;28;20035;-70
2022/02/07 12:07:23;;;;;;;11.85;2.28;;;8.80;66.40;;;;;;4923296;28;20055;-69
2022/02/07 12:09:59;;;;;;;10.18;2.63;;;8.60;65.00;;;;;;4923293;28;20500;-69
2022/02/07 12:12:37;;;;;;;9.77;2.42;;;8.30;64.70;;;;;;4922282;28;20650;-69
2022/02/07 12:15:16;;;;;;;9.98;2.33;;;8.40;65.20;;;;;;4920025;28;20442;-69
2022/02/07 12:17:47;;;;;;;8.70;2.72;;;8.40;66.40;;;;;;4924781;28;20059;-68
2022/02/07 12:20:21;;;;;;;11.13;2.90;;;8.50;65.70;;;;;;4923892;28;20036;-68
2022/02/07 12:22:56;;;;;;;12.45;3.75;;;8.50;66.60;;;;;;4923070;28;20043;-70
2022/02/07 12:25:23;;;;;;;;;;;8.60;65.80;;;;;;4920793;28;20075;-70
2022/02/07 12:27:50;;;;;;;10.80;2.63;;;8.50;67.10;;;;;;4921736;28;19931;-69
2022/02/07 12:30:28;;;;;;;11.55;2.65;;;8.70;66.70;;;;;;4922889;28;20027;-69
2022/02/07 12:32:53;;;;;;;10.48;2.33;;;8.90;66.40;;;;;;4923632;28;20427;-70
2022/02/07 12:35:24;;;;;;;10.38;2.50;;;8.90;64.70;;;;;;4920984;28;20099;-71
2022/02/07 12:37:50;;;;;;;12.27;2.60;;;9.00;63.80;;;;;;4920224;28;20031;-72
2022/02/07 12:40:16;;;;;;;14.48;3.13;;;9.00;64.30;;;;;;4921450;28;20760;-68
2022/02/07 12:42:43;;;;;;;11.82;2.83;;;8.80;65.50;;;;;;4955471;28;20051;-71
2022/02/07 12:45:09;;;;;;;9.07;2.90;;;8.70;64.90;;;;;;4926390;28;20055;-70
2022/02/07 12:47:38;;;;;;;12.88;2.80;;;8.90;65.50;;;;;;4923395;28;20511;-71
2022/02/07 12:50:10;;;;;;;10.70;3.35;;;9.10;64.70;;;;;;4953637;28;20039;-69
2022/02/07 12:52:37;;;;;;;12.30;2.33;;;9.00;63.90;;;;;;4936835;28;20044;-70
2022/02/07 12:55:05;;;;;;;9.02;2.72;;;8.90;63.50;;;;;;4920323;28;20036;-69
2022/02/07 12:57:42;;;;;;;9.15;3.05;;;8.70;63.70;;;;;;4917526;28;20502;-68
2022/02/07 13:00:19;;;;;;;8.80;2.30;;;8.70;64.10;;;;;;4922360;28;20383;-71
2022/02/07 13:02:49;;;;;;;11.13;3.38;;;8.90;64.40;;;;;;4915643;28;20036;-70
2022/02/07 13:05:18;;;;;;;11.70;2.75;;;8.90;62.80;;;;;;4917491;28;20043;-73
2022/02/07 13:07:48;;;;;;;10.95;2.80;;;8.90;63.40;;;;;;4932601;28;20039;-71
2022/02/07 13:10:21;;;;;;;13.35;3.10;;;8.80;63.20;;;;;;4920710;28;20043;-70
2022/02/07 13:15:26;;;;;;;13.02;3.78;;;9.00;63.00;;;;;;4917522;28;20035;-70
2022/02/07 13:17:59;;;;;;;11.15;4.00;;;9.10;62.50;;;;;;4944836;28;20036;-72
2022/02/07 13:20:26;;;;;;;11.90;4.07;;;8.90;62.80;;;;;;4918524;28;20032;-70
2022/02/07 13:23:07;;;;;;;12.68;4.35;;;8.90;62.80;;;;;;4911887;28;20095;-71
2022/02/07 13:25:42;;;;;;;11.23;4.40;;;9.10;63.30;;;;;;4914959;28;20436;-69
2022/02/07 13:28:22;;;;;;;13.23;4.25;;;9.10;63.30;;;;;;4919748;28;20388;-70
2022/02/07 13:30:51;;;;;;;14.50;4.13;;;9.00;63.60;;;;;;4913646;28;20036;-70
2022/02/07 13:33:17;;;;;;;9.82;3.10;;;8.80;65.00;;;;;;4916844;28;20464;-69
2022/02/07 13:35:47;;;;;;;10.85;3.33;;;8.90;65.30;;;;;;4916908;28;20024;-71
2022/02/07 13:38:15;;;;;;;10.27;3.05;;;9.10;64.30;;;;;;4920979;28;20039;-69
2022/02/07 13:40:50;;;;;;;8.77;2.65;;;9.00;64.50;;;;;;4914253;28;20191;-69
2022/02/07 13:43:20;;;;;;;10.80;2.80;;;9.10;62.60;;;;;;4916522;28;20043;-70
2022/02/07 13:45:51;;;;;;;12.15;2.72;;;9.10;61.90;;;;;;4919037;28;20040;-72
2022/02/07 13:48:19;;;;;;;14.88;3.70;;;9.00;61.50;;;;;;4919256;28;20043;-69
2022/02/07 13:50:51;;;;;;;13.27;3.20;;;9.10;61.60;;;;;;4931981;28;20356;-70
2022/02/07 13:53:18;;;;;;;9.10;2.78;;;9.00;63.20;;;;;;4912456;28;20052;-70
2022/02/07 13:55:48;;;;;;;12.52;2.92;;;8.80;64.80;;;;;;4932577;28;20027;-68
2022/02/07 13:58:15;;;;;;;13.32;3.05;;;8.90;64.60;;;;;;4916838;28;20050;-71
2022/02/07 14:00:54;;;;;;;12.77;2.92;;;9.00;64.80;;;;;;4923815;28;20039;-71
2022/02/07 14:03:21;;;;;;;11.93;3.35;;;8.90;64.90;;;;;;4919439;28;20036;-71
2022/02/07 14:05:51;;;;;;;16.90;3.15;;;9.10;65.10;;;;;;4921537;28;20040;-69
2022/02/07 14:08:39;;;;;;;9.40;2.33;;;9.00;64.70;;;;;;4918932;28;20309;-71
2022/02/07 14:11:08;;;;;;;12.20;3.00;;;9.00;64.00;;;;;;4921692;28;20035;-72
2022/02/07 14:13:34;;;;;;;11.88;2.92;;;8.80;63.50;;;;;;4921382;28;20688;-72
2022/02/07 14:16:02;;;;;;;11.48;3.17;;;8.80;63.30;;;;;;4922604;28;20042;-70
2022/02/07 14:18:30;;;;;;;11.70;3.13;;;8.70;62.80;;;;;;4922431;28;20032;-68
2022/02/07 14:20:56;;;;;;;10.43;2.78;;;8.70;62.30;;;;;;4922410;28;20034;-69
2022/02/07 14:23:22;;;;;;;11.48;2.80;;;8.80;63.10;;;;;;4922054;28;20390;-71
2022/02/07 14:25:52;;;;;;;14.15;2.67;;;8.80;61.90;;;;;;4951548;28;20502;-71
2022/02/07 14:28:18;;;;;;;11.10;2.80;;;8.80;62.60;;;;;;4918084;28;20383;-70
2022/02/07 14:30:45;;;;;;;11.82;3.58;;;8.90;62.30;;;;;;4921964;28;21133;-69
2022/02/07 14:33:11;;;;;;;12.48;3.42;;;8.70;63.10;;;;;;4921130;28;20432;-70
2022/02/07 14:35:37;;;;;;;10.52;2.45;;;8.70;63.60;;;;;;4922272;28;20138;-70
2022/02/07 14:38:05;;;;;;;10.23;3.38;;;8.70;63.10;;;;;;4920516;28;20399;-69
2022/02/07 14:40:36;;;;;;;11.48;2.80;;;8.60;63.30;;;;;;4919088;28;20130;-70
2022/02/07 14:43:04;;;;;;;9.90;3.05;;;8.60;63.30;;;;;;4920908;28;20042;-69
2022/02/07 14:45:43;;;;;;;11.02;3.65;;;8.50;64.10;;;;;;4935559;28;20384;-71
2022/02/07 14:48:10;;;;;;;13.23;2.95;;;8.60;64.20;;;;;;4916802;28;20162;-69
2022/02/07 14:50:36;;;;;;;12.27;2.75;;;8.50;64.50;;;;;;4921562;28;20119;-69
2022/02/07 14:53:03;;;;;;;14.52;2.90;;;8.60;65.00;;;;;;4920907;28;20038;-72
2022/02/07 14:55:30;;;;;;;13.52;3.05;;;8.60;64.50;;;;;;4916551;28;20059;-69
2022/02/07 14:57:57;;;;;;;11.85;2.92;;;8.60;63.80;;;;;;4924649;28;20111;-71
2022/02/07 15:00:27;;;;;;;9.88;2.70;;;8.60;63.30;;;;;;4921646;28;20039;-70
2022/02/07 15:02:54;;;;;;;14.50;4.47;;;8.60;62.90;;;;;;4918636;28;20051;-70
2022/02/07 15:05:20;;;;;;;9.05;2.90;;;8.50;61.50;;;;;;4923336;28;20028;-73
2022/02/07 15:07:46;;;;;;;9.15;2.20;;;8.60;61.00;;;;;;4918341;28;20051;-72
2022/02/07 15:10:12;;;;;;;13.25;3.38;;;8.50;61.70;;;;;;4928629;28;20039;-69
2022/02/07 15:12:38;;;;;;;12.00;3.05;;;8.50;62.20;;;;;;4921375;28;20040;-70
2022/02/07 15:15:05;;;;;;;14.38;3.10;;;8.60;62.30;;;;;;4918869;28;20364;-69
2022/02/07 15:17:31;;;;;;;11.30;3.38;;;8.60;62.90;;;;;;4919681;28;20043;-72
2022/02/07 15:20:04;;;;;;;16.08;4.22;;;8.70;63.30;;;;;;4921403;28;20051;-71
2022/02/07 15:22:29;;;;;;;13.93;3.97;;;8.60;64.00;;;;;;4920348;28;20052;-71
2022/02/07 15:24:55;;;;;;;16.60;5.38;;;8.60;64.20;;;;;;4921021;28;20074;-69
2022/02/07 15:27:23;;;;;;;13.32;3.72;;;8.60;64.40;;;;;;4919524;28;20172;-69
2022/02/07 15:29:48;;;;;;;10.48;3.97;;;8.60;64.00;;;;;;4919863;28;20042;-69
2022/02/07 15:34:57;;;;;;;9.95;3.50;;;8.60;62.50;;;;;;4924188;28;20070;-70
2022/02/07 15:37:24;;;;;;;11.47;3.93;;;8.60;61.90;;;;;;4930587;28;20086;-72